createdAt,value
2022-12-11T00:01:42.929Z,17.32
2022-12-11T00:04:09.228Z,17.30
2022-12-11T00:06:35.500Z,17.29
2022-12-11T00:09:01.840Z,17.27
2022-12-11T00:11:28.100Z,17.25
2022-12-11T00:13:54.380Z,17.23
2022-12-11T00:16:26.544Z,17.21
2022-12-11T00:18:53.538Z,17.20
2022-12-11T00:21:19.944Z,17.18
2022-12-11T00:23:46.252Z,17.16
2022-12-11T00:26:12.505Z,17.16
2022-12-11T00:28:38.771Z,17.15
2022-12-11T00:31:05.303Z,17.13
2022-12-11T00:33:31.737Z,17.11
2022-12-11T00:35:58.119Z,17.10
2022-12-11T00:38:24.419Z,17.08
2022-12-11T00:40:50.708Z,17.06
2022-12-11T00:43:16.944Z,17.05
2022-12-11T00:45:43.338Z,17.03
2022-12-11T00:48:09.759Z,17.01
2022-12-11T00:50:36.211Z,16.99
2022-12-11T00:53:02.564Z,16.97
2022-12-11T00:55:28.816Z,16.97
2022-12-11T00:57:55.279Z,16.95
2022-12-11T01:00:21.515Z,16.95
2022-12-11T01:02:50.623Z,16.93
2022-12-11T01:05:16.936Z,16.91
2022-12-11T01:07:43.348Z,16.89
2022-12-11T01:10:09.663Z,16.87
2022-12-11T01:12:36.017Z,16.86
2022-12-11T01:15:02.547Z,16.83
2022-12-11T01:17:28.920Z,16.83
2022-12-11T01:19:55.267Z,16.82
2022-12-11T01:22:21.672Z,16.82
2022-12-11T01:24:47.991Z,16.79
2022-12-11T01:27:14.252Z,16.77
2022-12-11T01:29:40.600Z,16.74
2022-12-11T01:32:07.015Z,16.73
2022-12-11T01:34:33.294Z,16.71
2022-12-11T01:36:59.564Z,16.70
2022-12-11T01:39:26.023Z,16.69
2022-12-11T01:41:52.296Z,16.67
2022-12-11T01:44:18.649Z,16.66
2022-12-11T01:46:44.915Z,16.63
2022-12-11T01:49:11.351Z,16.63
2022-12-11T01:51:37.669Z,16.63
2022-12-11T01:54:03.996Z,16.61
2022-12-11T01:56:30.592Z,16.61
2022-12-11T01:58:56.841Z,16.58
2022-12-11T02:01:23.155Z,16.55
2022-12-11T02:03:50.043Z,16.55
2022-12-11T02:06:16.696Z,16.54
2022-12-11T02:08:43.940Z,16.53
2022-12-11T02:11:10.327Z,16.52
2022-12-11T02:13:37.065Z,16.50
2022-12-11T02:16:04.318Z,16.49
2022-12-11T02:23:45.479Z,16.46
2022-12-11T02:26:11.791Z,16.42
2022-12-11T02:28:38.214Z,16.42
2022-12-11T02:31:04.514Z,16.39
2022-12-11T02:33:30.820Z,16.38
2022-12-11T02:35:57.542Z,16.38
2022-12-11T02:38:23.925Z,16.37
2022-12-11T02:40:50.259Z,16.36
2022-12-11T02:43:16.567Z,16.35
2022-12-11T02:45:42.905Z,16.34
2022-12-11T02:48:09.248Z,16.33
2022-12-11T02:50:35.691Z,16.31
2022-12-11T02:53:02.060Z,16.30
2022-12-11T02:55:28.405Z,16.27
2022-12-11T02:57:54.761Z,16.28
2022-12-11T03:00:21.128Z,16.27
2022-12-11T03:02:47.597Z,16.25
2022-12-11T03:05:14.032Z,16.25
2022-12-11T03:07:40.378Z,16.22
2022-12-11T03:10:06.624Z,16.21
2022-12-11T03:12:32.992Z,16.20
2022-12-11T03:15:00.296Z,16.19
2022-12-11T03:17:26.756Z,16.18
2022-12-11T03:19:53.250Z,16.15
2022-12-11T03:22:19.664Z,16.15
2022-12-11T03:24:45.959Z,16.14
2022-12-11T03:27:12.368Z,16.14
2022-12-11T03:29:38.834Z,16.13
2022-12-11T03:32:05.112Z,16.11
2022-12-11T03:34:31.402Z,16.11
2022-12-11T03:36:57.651Z,16.08
2022-12-11T03:39:23.953Z,16.08
2022-12-11T03:41:50.315Z,16.08
2022-12-11T03:44:16.627Z,16.06
2022-12-11T03:46:42.963Z,16.05
2022-12-11T03:49:09.270Z,16.06
2022-12-11T03:51:35.586Z,16.05
2022-12-11T03:54:02.012Z,16.04
2022-12-11T03:56:28.300Z,16.03
2022-12-11T03:58:54.531Z,16.00
2022-12-11T04:01:20.970Z,16.00
2022-12-11T04:03:47.993Z,15.99
2022-12-11T04:06:15.035Z,15.97
2022-12-11T04:08:41.838Z,15.95
2022-12-11T04:11:08.841Z,15.94
2022-12-11T04:13:36.683Z,15.94
2022-12-11T04:16:03.692Z,15.93
2022-12-11T04:18:30.304Z,15.92
2022-12-11T04:20:57.555Z,15.91
2022-12-11T04:23:24.069Z,15.91
2022-12-11T04:25:50.684Z,15.89
2022-12-11T04:28:17.512Z,15.89
2022-12-11T04:30:45.115Z,15.89
2022-12-11T04:33:11.759Z,15.88
2022-12-11T04:35:38.277Z,15.87
2022-12-11T04:38:04.663Z,15.86
2022-12-11T04:40:30.963Z,15.85
2022-12-11T04:42:57.215Z,15.85
2022-12-11T04:45:23.537Z,15.84
2022-12-11T04:47:49.815Z,15.82
2022-12-11T04:50:16.199Z,15.81
2022-12-11T04:52:42.499Z,15.81
2022-12-11T04:55:09.156Z,15.79
2022-12-11T04:57:35.801Z,15.79
2022-12-11T05:00:02.094Z,15.77
2022-12-11T05:02:28.406Z,15.78
2022-12-11T05:04:54.786Z,15.77
2022-12-11T05:07:21.119Z,15.76
2022-12-11T05:09:47.423Z,15.72
2022-12-11T05:12:13.823Z,15.73
2022-12-11T05:14:40.176Z,15.72
2022-12-11T05:17:06.552Z,15.71
2022-12-11T05:19:32.880Z,15.71
2022-12-11T05:21:59.188Z,15.70
2022-12-11T05:24:25.487Z,15.68
2022-12-11T05:26:51.723Z,15.69
2022-12-11T05:29:17.985Z,15.66
2022-12-11T05:31:45.292Z,15.66
2022-12-11T05:34:11.607Z,15.65
2022-12-11T05:36:37.869Z,15.66
2022-12-11T05:39:04.173Z,15.64
2022-12-11T05:41:30.491Z,15.62
2022-12-11T05:43:56.856Z,15.61
2022-12-11T05:46:23.165Z,15.62
2022-12-11T05:48:49.506Z,15.59
2022-12-11T05:51:15.892Z,15.61
2022-12-11T05:53:42.217Z,15.58
2022-12-11T05:56:08.739Z,15.58
2022-12-11T05:58:35.057Z,15.55
2022-12-11T06:01:01.416Z,15.54
2022-12-11T06:03:27.818Z,15.54
2022-12-11T06:05:54.091Z,15.54
2022-12-11T06:08:20.711Z,15.53
2022-12-11T06:10:47.078Z,15.52
2022-12-11T06:13:13.419Z,15.52
2022-12-11T06:15:39.750Z,15.50
2022-12-11T06:18:06.184Z,15.49
2022-12-11T06:20:32.644Z,15.49
2022-12-11T06:22:59.075Z,15.49
2022-12-11T06:25:25.367Z,15.47
2022-12-11T06:27:51.649Z,15.47
2022-12-11T06:30:17.995Z,15.44
2022-12-11T06:32:44.282Z,15.45
2022-12-11T06:35:10.721Z,15.45
2022-12-11T06:37:37.374Z,15.43
2022-12-11T06:40:03.695Z,15.43
2022-12-11T06:42:29.994Z,15.40
2022-12-11T06:44:56.224Z,15.39
2022-12-11T06:47:22.506Z,15.39
2022-12-11T06:49:48.807Z,15.39
2022-12-11T06:52:18.362Z,15.37
2022-12-11T06:54:45.277Z,15.37
2022-12-11T06:57:11.620Z,15.36
2022-12-11T06:59:37.970Z,15.35
2022-12-11T07:02:04.368Z,15.35
2022-12-11T07:04:30.777Z,15.35
2022-12-11T07:06:57.100Z,15.34
2022-12-11T07:09:23.334Z,15.33
2022-12-11T07:11:49.607Z,15.33
2022-12-11T07:14:15.915Z,15.31
2022-12-11T07:16:42.345Z,15.28
2022-12-11T07:19:08.703Z,15.28
2022-12-11T07:21:35.118Z,15.30
2022-12-11T07:24:01.409Z,15.28
2022-12-11T07:26:27.821Z,15.28
2022-12-11T07:28:54.060Z,15.26
2022-12-11T07:31:20.513Z,15.25
2022-12-11T07:33:46.839Z,15.25
2022-12-11T07:36:13.189Z,15.26
2022-12-11T07:38:39.436Z,15.24
2022-12-11T07:41:05.830Z,15.23
2022-12-11T07:43:33.079Z,15.22
2022-12-11T07:45:59.571Z,15.21
2022-12-11T07:48:25.878Z,15.20
2022-12-11T07:50:52.149Z,15.19
2022-12-11T07:53:18.559Z,15.19
2022-12-11T07:55:44.846Z,15.18
2022-12-11T07:58:11.190Z,15.17
2022-12-11T08:00:37.558Z,15.18
2022-12-11T08:03:03.860Z,15.15
2022-12-11T08:05:30.197Z,15.16
2022-12-11T08:07:56.591Z,15.14
2022-12-11T08:10:22.927Z,15.14
2022-12-11T08:12:49.219Z,15.13
2022-12-11T08:15:15.497Z,15.12
2022-12-11T08:17:41.771Z,15.13
2022-12-11T08:20:08.077Z,15.12
2022-12-11T08:22:34.593Z,15.11
2022-12-11T08:25:00.948Z,15.08
2022-12-11T08:27:27.374Z,15.09
2022-12-11T08:29:53.768Z,15.07
2022-12-11T08:32:20.190Z,15.07
2022-12-11T08:34:46.705Z,15.05
2022-12-11T08:37:13.012Z,15.06
2022-12-11T08:39:39.585Z,15.06
2022-12-11T08:42:05.838Z,15.05
2022-12-11T08:44:32.506Z,15.05
2022-12-11T08:46:58.996Z,15.04
2022-12-11T08:49:27.622Z,15.03
2022-12-11T08:51:57.547Z,15.03
2022-12-11T08:54:24.049Z,15.04
2022-12-11T08:56:54.808Z,15.02
2022-12-11T08:59:24.072Z,15.03
2022-12-11T09:01:50.495Z,15.00
2022-12-11T09:04:16.913Z,15.01
2022-12-11T09:06:43.231Z,14.99
2022-12-11T09:09:09.513Z,14.98
2022-12-11T09:11:35.831Z,14.96
2022-12-11T09:14:07.246Z,14.97
2022-12-11T09:16:34.107Z,14.94
2022-12-11T09:19:00.371Z,14.94
2022-12-11T09:21:26.636Z,14.93
2022-12-11T09:23:53.095Z,14.95
2022-12-11T09:26:19.455Z,14.93
2022-12-11T09:28:46.874Z,14.93
2022-12-11T09:41:47.772Z,14.82
2022-12-11T09:49:24.802Z,14.78
2022-12-11T09:51:52.751Z,14.75
2022-12-11T09:54:19.088Z,14.75
2022-12-11T09:56:45.412Z,14.74
2022-12-11T09:59:11.832Z,14.73
2022-12-11T10:01:38.192Z,14.74
2022-12-11T10:04:04.505Z,14.73
2022-12-11T10:06:30.805Z,14.75
2022-12-11T10:08:57.055Z,14.74
2022-12-11T10:11:23.290Z,14.81
2022-12-11T10:13:49.607Z,14.93
2022-12-11T10:16:15.935Z,15.06
2022-12-11T10:18:42.206Z,15.20
2022-12-11T10:21:08.470Z,15.37
2022-12-11T10:23:35.001Z,15.50
2022-12-11T10:33:55.809Z,15.99
2022-12-11T10:36:22.193Z,16.05
2022-12-11T10:43:57.821Z,16.34
2022-12-11T10:46:24.139Z,16.40
2022-12-11T10:48:50.437Z,16.42
2022-12-11T10:51:16.858Z,16.48
2022-12-11T10:53:43.193Z,16.55
2022-12-11T10:56:09.540Z,16.64
2022-12-11T11:01:17.878Z,16.65
2022-12-11T11:03:44.270Z,16.67
2022-12-11T11:06:10.563Z,16.68
2022-12-11T11:08:36.855Z,16.72
2022-12-11T11:11:03.178Z,16.75
2022-12-11T11:13:29.585Z,16.81
2022-12-11T11:15:55.955Z,16.81
2022-12-11T11:18:22.449Z,16.86
2022-12-11T11:20:48.711Z,16.90
2022-12-11T11:23:15.164Z,16.94
2022-12-11T11:25:41.639Z,16.98
2022-12-11T11:28:07.916Z,17.02
2022-12-11T11:30:34.243Z,17.06
2022-12-11T11:33:00.535Z,17.09
2022-12-11T11:35:26.801Z,17.08
2022-12-11T11:37:53.294Z,17.13
2022-12-11T11:42:49.213Z,17.21
2022-12-11T11:45:15.522Z,17.25
2022-12-11T11:47:41.834Z,17.30
2022-12-11T11:50:08.075Z,17.34
2022-12-11T11:52:34.371Z,17.35
2022-12-11T11:55:00.627Z,17.38
2022-12-11T11:57:26.986Z,17.40
2022-12-11T11:59:53.436Z,17.42
2022-12-11T12:02:19.890Z,17.47
2022-12-11T12:04:46.199Z,17.49
2022-12-11T12:07:12.490Z,17.52
2022-12-11T12:09:38.861Z,17.55
2022-12-11T12:12:05.276Z,17.56
2022-12-11T12:17:17.880Z,17.59
2022-12-11T12:19:47.523Z,17.59
2022-12-11T12:22:13.810Z,17.64
2022-12-11T12:24:40.152Z,17.65
2022-12-11T12:27:17.698Z,17.68
2022-12-11T12:29:52.725Z,17.71
2022-12-11T12:32:19.096Z,17.75
2022-12-11T12:34:45.500Z,17.76
2022-12-11T12:37:11.826Z,17.79
2022-12-11T12:39:38.078Z,17.80
2022-12-11T12:42:07.726Z,17.86
2022-12-11T12:44:34.766Z,17.89
2022-12-11T12:52:16.920Z,18.04
2022-12-11T12:54:43.288Z,18.06
2022-12-11T12:57:09.775Z,18.12
2022-12-11T12:59:36.384Z,18.21
2022-12-11T13:02:02.837Z,18.29
2022-12-11T13:04:54.345Z,18.33
2022-12-11T13:07:15.395Z,18.38
2022-12-11T13:09:41.809Z,18.39
2022-12-11T13:12:08.228Z,18.50
2022-12-11T13:14:34.632Z,18.50
2022-12-11T13:17:00.977Z,18.50
2022-12-11T13:22:02.927Z,18.58
2022-12-11T13:24:29.293Z,18.61
2022-12-11T13:26:55.553Z,18.65
2022-12-11T13:29:21.832Z,18.61
2022-12-11T13:53:08.960Z,18.89
2022-12-11T13:58:10.415Z,18.95
2022-12-11T14:00:36.748Z,18.98
2022-12-11T14:03:03.434Z,18.96
2022-12-11T14:05:29.899Z,19.00
2022-12-11T14:07:56.418Z,19.01
2022-12-11T14:10:22.903Z,19.07
2022-12-11T14:12:49.178Z,19.09
2022-12-11T14:15:15.471Z,19.12
2022-12-11T14:17:41.707Z,19.16
2022-12-11T14:20:08.144Z,19.14
2022-12-11T14:22:34.632Z,19.12
2022-12-11T14:25:00.862Z,19.13
2022-12-11T14:27:27.101Z,19.17
2022-12-11T14:29:53.423Z,19.17
2022-12-11T14:34:53.234Z,19.26
2022-12-11T14:37:19.634Z,19.30
2022-12-11T14:39:45.978Z,19.34
2022-12-11T14:44:41.449Z,19.35
2022-12-11T14:47:07.732Z,19.33
2022-12-11T14:49:34.166Z,19.24
2022-12-11T14:52:00.865Z,19.16
2022-12-11T14:54:27.369Z,19.08
2022-12-11T14:56:53.709Z,19.02
2022-12-11T14:59:20.173Z,18.99
2022-12-11T15:01:46.456Z,18.95
2022-12-11T15:04:12.764Z,18.92
2022-12-11T15:06:39.209Z,18.90
2022-12-11T15:09:05.542Z,18.87
2022-12-11T15:11:31.919Z,18.76
2022-12-11T15:13:58.316Z,18.75
2022-12-11T15:16:24.673Z,18.65
2022-12-11T15:21:27.057Z,18.07
2022-12-11T15:23:53.696Z,17.83
2022-12-11T15:26:20.236Z,17.63
2022-12-11T15:28:46.571Z,17.46
2022-12-11T15:31:12.838Z,17.27
2022-12-11T15:33:39.283Z,16.97
2022-12-11T15:36:05.749Z,16.78
2022-12-11T15:38:32.082Z,16.56
2022-12-11T15:40:58.505Z,16.30
2022-12-11T15:43:24.972Z,16.19
2022-12-11T15:45:51.534Z,16.22
2022-12-11T15:48:18.060Z,16.26
2022-12-11T15:50:44.368Z,16.34
2022-12-11T15:53:10.655Z,16.42
2022-12-11T15:55:36.978Z,16.47
2022-12-11T15:58:03.289Z,16.52
2022-12-11T16:00:29.669Z,16.58
2022-12-11T16:02:55.999Z,16.61
2022-12-11T16:05:22.344Z,16.64
2022-12-11T16:07:48.764Z,16.68
2022-12-11T16:10:15.189Z,16.70
2022-12-11T16:12:41.614Z,16.73
2022-12-11T16:15:07.933Z,16.73
2022-12-11T16:17:34.212Z,16.74
2022-12-11T16:20:00.521Z,16.75
2022-12-11T16:22:26.878Z,16.76
2022-12-11T16:24:53.297Z,16.75
2022-12-11T16:27:23.037Z,16.77
2022-12-11T16:29:49.830Z,16.76
2022-12-11T16:32:16.148Z,16.77
2022-12-11T16:34:42.396Z,16.74
2022-12-11T16:37:08.775Z,16.73
2022-12-11T16:39:35.080Z,16.72
2022-12-11T16:42:01.348Z,16.70
2022-12-11T16:44:27.821Z,16.68
2022-12-11T16:46:54.055Z,16.68
2022-12-11T16:49:20.355Z,16.67
2022-12-11T16:51:46.662Z,16.67
2022-12-11T16:54:13.084Z,16.66
2022-12-11T16:56:39.376Z,16.61
2022-12-11T16:59:05.790Z,16.62
2022-12-11T17:01:32.350Z,16.61
2022-12-11T17:03:58.757Z,16.60
2022-12-11T17:06:25.156Z,16.58
2022-12-11T17:08:51.462Z,16.56
2022-12-11T17:11:17.744Z,16.55
2022-12-11T17:13:44.101Z,16.53
2022-12-11T17:16:10.455Z,16.51
2022-12-11T17:18:37.012Z,16.52
2022-12-11T17:21:03.401Z,16.49
2022-12-11T17:23:29.690Z,16.47
2022-12-11T17:25:56.591Z,16.46
2022-12-11T17:28:22.990Z,16.45
2022-12-11T17:30:49.328Z,16.44
2022-12-11T17:33:15.895Z,16.41
2022-12-11T17:35:42.188Z,16.41
2022-12-11T17:38:08.627Z,16.40
2022-12-11T17:40:35.035Z,16.38
2022-12-11T17:43:01.356Z,16.37
2022-12-11T17:45:27.668Z,16.36
2022-12-11T17:47:53.939Z,16.34
2022-12-11T17:50:20.258Z,16.34
2022-12-11T17:52:46.589Z,16.31
2022-12-11T17:55:13.215Z,16.31
2022-12-11T17:57:39.621Z,16.29
2022-12-11T18:00:05.958Z,16.24
2022-12-11T18:02:32.260Z,16.22
2022-12-11T18:04:58.569Z,16.23
2022-12-11T18:07:24.940Z,16.20
2022-12-11T18:09:51.277Z,16.19
2022-12-11T18:12:17.584Z,16.17
2022-12-11T18:14:43.882Z,16.16
2022-12-11T18:17:10.116Z,16.15
2022-12-11T18:19:39.180Z,16.13
2022-12-11T18:22:09.322Z,16.12
2022-12-11T18:24:35.739Z,16.11
2022-12-11T18:27:02.055Z,16.10
2022-12-11T18:29:28.350Z,16.08
2022-12-11T18:31:54.850Z,16.06
2022-12-11T18:34:21.196Z,16.05
2022-12-11T18:36:47.485Z,16.02
2022-12-11T18:39:13.883Z,16.00
2022-12-11T18:41:40.170Z,15.99
2022-12-11T18:44:09.689Z,16.01
2022-12-11T18:46:36.603Z,16.01
2022-12-11T18:49:02.937Z,15.97
2022-12-11T18:51:29.359Z,15.95
2022-12-11T18:53:55.746Z,15.94
2022-12-11T18:56:22.064Z,15.93
2022-12-11T18:58:48.515Z,15.90
2022-12-11T19:01:14.893Z,15.88
2022-12-11T19:03:41.296Z,15.88
2022-12-11T19:06:07.675Z,15.87
2022-12-11T19:08:33.903Z,15.85
2022-12-11T19:11:00.311Z,15.85
2022-12-11T19:13:26.555Z,15.82
2022-12-11T19:15:53.062Z,15.81
2022-12-11T19:18:19.435Z,15.79
2022-12-11T19:20:51.755Z,15.78
2022-12-11T19:23:21.868Z,15.75
2022-12-11T19:25:48.133Z,15.75
2022-12-11T19:28:14.435Z,15.74
2022-12-11T19:30:40.707Z,15.72
2022-12-11T19:33:07.012Z,15.70
2022-12-11T19:35:33.299Z,15.70
2022-12-11T19:37:59.655Z,15.68
2022-12-11T19:40:26.056Z,15.68
2022-12-11T19:42:52.319Z,15.65
2022-12-11T19:45:18.674Z,15.64
2022-12-11T19:47:45.091Z,15.63
2022-12-11T19:50:11.318Z,15.62
2022-12-11T19:52:42.864Z,15.61
2022-12-11T19:55:12.361Z,15.60
2022-12-11T19:57:38.898Z,15.59
2022-12-11T20:00:05.210Z,15.58
2022-12-11T20:02:31.603Z,15.56
2022-12-11T20:04:57.942Z,15.56
2022-12-11T20:07:30.330Z,15.54
2022-12-11T20:09:56.977Z,15.53
2022-12-11T20:12:23.228Z,15.52
2022-12-11T20:14:49.530Z,15.51
2022-12-11T20:17:16.088Z,15.50
2022-12-11T20:19:42.670Z,15.49
2022-12-11T20:22:08.963Z,15.48
2022-12-11T20:24:35.384Z,15.46
2022-12-11T20:27:01.710Z,15.48
2022-12-11T20:29:28.008Z,15.45
2022-12-11T20:31:54.361Z,15.43
2022-12-11T20:34:20.659Z,15.43
2022-12-11T20:36:46.914Z,15.41
2022-12-11T20:39:13.291Z,15.40
2022-12-11T20:41:39.695Z,15.39
2022-12-11T20:44:05.959Z,15.40
2022-12-11T20:46:32.459Z,15.39
2022-12-11T20:48:58.781Z,15.38
2022-12-11T20:51:26.255Z,15.36
2022-12-11T20:53:52.930Z,15.35
2022-12-11T20:56:19.402Z,15.35
2022-12-11T20:58:45.675Z,15.34
2022-12-11T21:01:11.997Z,15.33
2022-12-11T21:03:41.998Z,15.33
2022-12-11T21:06:08.608Z,15.31
2022-12-11T21:08:34.967Z,15.29
2022-12-11T21:11:01.335Z,15.29
2022-12-11T21:13:27.615Z,15.28
2022-12-11T21:15:53.941Z,15.26
2022-12-11T21:18:20.244Z,15.27
2022-12-11T21:20:46.522Z,15.26
2022-12-11T21:23:12.867Z,15.25
2022-12-11T21:25:39.309Z,15.24
2022-12-11T21:28:05.620Z,15.23
2022-12-11T21:30:31.878Z,15.23
2022-12-11T21:32:58.122Z,15.22
2022-12-11T21:35:24.498Z,15.20
2022-12-11T21:37:50.829Z,15.18
2022-12-11T21:40:17.138Z,15.20
2022-12-11T21:42:43.372Z,15.16
2022-12-11T21:47:56.104Z,15.16
2022-12-11T21:50:22.559Z,15.14
2022-12-11T21:52:48.858Z,15.14
2022-12-11T21:55:15.280Z,15.15
2022-12-11T21:57:41.569Z,15.13
2022-12-11T22:00:07.960Z,15.13
2022-12-11T22:02:40.465Z,15.10
2022-12-11T22:05:07.384Z,15.11
2022-12-11T22:07:33.922Z,15.09
2022-12-11T22:10:00.169Z,15.10
2022-12-11T22:12:26.495Z,15.09
2022-12-11T22:14:52.917Z,15.08
2022-12-11T22:17:19.252Z,15.07
2022-12-11T22:19:45.557Z,15.08
2022-12-11T22:22:11.912Z,15.07
2022-12-11T22:24:38.446Z,15.06
2022-12-11T22:27:04.723Z,15.05
2022-12-11T22:29:30.962Z,15.05
2022-12-11T22:31:57.320Z,15.04
2022-12-11T22:34:23.811Z,15.03
2022-12-11T22:36:50.228Z,15.03
2022-12-11T22:39:16.470Z,15.02
2022-12-11T22:41:42.847Z,15.00
2022-12-11T22:44:09.258Z,15.02
2022-12-11T22:46:35.675Z,15.01
2022-12-11T22:49:02.015Z,15.02
2022-12-11T22:51:28.307Z,14.99
2022-12-11T22:53:54.641Z,15.01
2022-12-11T22:56:20.998Z,15.02
2022-12-11T22:58:47.329Z,15.02
2022-12-11T23:01:13.603Z,15.01
2022-12-11T23:03:39.951Z,15.03
2022-12-11T23:06:06.436Z,15.01
2022-12-11T23:08:32.930Z,15.00
2022-12-11T23:10:59.346Z,15.02
2022-12-11T23:13:25.747Z,15.00
2022-12-11T23:15:52.072Z,14.98
2022-12-11T23:18:18.518Z,14.94
2022-12-11T23:20:44.838Z,14.91
2022-12-11T23:23:14.169Z,14.89
2022-12-11T23:25:40.526Z,14.87
2022-12-11T23:28:07.483Z,14.85
2022-12-11T23:30:34.122Z,14.85
2022-12-11T23:33:00.512Z,14.83
2022-12-11T23:35:26.871Z,14.81
2022-12-11T23:37:53.269Z,14.79
2022-12-11T23:40:19.865Z,14.78
2022-12-11T23:42:46.340Z,14.77
2022-12-11T23:45:12.918Z,14.75
2022-12-11T23:47:39.406Z,14.75
2022-12-11T23:50:05.696Z,14.73
2022-12-11T23:52:31.978Z,14.71
2022-12-11T23:54:58.242Z,14.70
2022-12-11T23:57:24.610Z,14.69
2022-12-11T23:59:50.910Z,14.68
